Time;durP1;ratioP1;P1;durP2;ratioP2;P2;SDS_P1;SDS_P2;PMS_P1;PMS_P2;Temp;Humidity;BMP_temperature;BMP_pressure;BME280_temperature;BME280_humidity;BME280_pressure;Samples;Min_cycle;Max_cycle;Signal;HPM_P1;HPM_P2
2023/06/14 00:00:22;;;;;;;6.95;4.20;;;14.50;99.90;;;;;;2093720;28;20555;-80
2023/06/14 00:01:22;;;;;;;4.90;3.92;;;14.40;99.90;;;;;;2095785;28;20091;-80
2023/06/14 00:02:23;;;;;;;4.78;4.10;;;14.40;99.90;;;;;;2101544;28;20483;-81
2023/06/14 00:03:24;;;;;;;6.45;4.47;;;14.40;99.90;;;;;;2099085;28;20112;-80
2023/06/14 00:04:25;;;;;;;5.97;4.13;;;14.40;99.90;;;;;;2097319;28;20028;-79
2023/06/14 00:05:26;;;;;;;6.13;4.15;;;14.40;99.90;;;;;;2102496;28;20432;-80
2023/06/14 00:06:28;;;;;;;5.13;4.00;;;14.40;99.90;;;;;;2099687;28;20115;-79
2023/06/14 00:07:36;;;;;;;5.68;4.50;;;14.40;99.90;;;;;;2093725;28;20123;-81
2023/06/14 00:08:37;;;;;;;9.63;4.50;;;14.30;99.90;;;;;;2090857;28;20028;-80
2023/06/14 00:09:38;;;;;;;6.30;4.18;;;14.30;99.90;;;;;;2101315;28;20036;-79
2023/06/14 00:10:41;;;;;;;8.23;4.35;;;14.30;99.90;;;;;;2101053;28;20020;-78
2023/06/14 00:11:41;;;;;;;8.35;4.50;;;14.30;99.90;;;;;;2105208;28;20043;-79
2023/06/14 00:12:42;;;;;;;5.57;4.35;;;14.20;99.90;;;;;;2098572;28;20491;-81
2023/06/14 00:13:43;;;;;;;6.28;4.40;;;14.20;99.90;;;;;;2098660;28;20560;-80
2023/06/14 00:14:43;;;;;;;5.80;4.47;;;14.20;99.90;;;;;;2099254;28;20044;-80
2023/06/14 00:15:44;;;;;;;6.75;4.38;;;14.20;99.90;;;;;;2103861;28;20475;-79
2023/06/14 00:16:45;;;;;;;6.72;4.72;;;14.20;99.90;;;;;;2102860;28;20111;-79
2023/06/14 00:17:47;;;;;;;9.15;4.63;;;14.10;99.90;;;;;;2092362;28;20039;-80
2023/06/14 00:18:47;;;;;;;6.70;4.78;;;14.20;99.90;;;;;;2101199;28;20096;-80
2023/06/14 00:19:49;;;;;;;6.57;4.40;;;14.10;99.90;;;;;;2096967;28;20095;-80
2023/06/14 00:20:51;;;;;;;6.88;4.45;;;14.10;99.90;;;;;;2100000;28;20494;-80
2023/06/14 00:21:52;;;;;;;5.03;4.50;;;14.10;99.90;;;;;;2098550;28;20089;-80
2023/06/14 00:22:55;;;;;;;7.47;4.60;;;14.10;99.90;;;;;;2099598;28;20060;-81
2023/06/14 00:23:57;;;;;;;5.53;4.40;;;14.00;99.90;;;;;;2102272;28;20470;-82
2023/06/14 00:24:57;;;;;;;7.20;4.63;;;14.10;99.90;;;;;;2096377;28;20030;-82
2023/06/14 00:25:58;;;;;;;8.73;4.82;;;14.00;99.90;;;;;;2084691;28;20021;-81
2023/06/14 00:26:59;;;;;;;5.63;4.50;;;14.00;99.90;;;;;;2094642;28;20103;-80
2023/06/14 00:28:00;;;;;;;6.32;4.72;;;14.00;99.90;;;;;;2103140;28;20022;-80
2023/06/14 00:29:00;;;;;;;6.45;4.47;;;14.00;99.90;;;;;;2103950;28;20019;-81
2023/06/14 00:30:01;;;;;;;5.13;4.60;;;14.00;99.90;;;;;;2099307;28;20020;-81
2023/06/14 00:31:01;;;;;;;6.47;4.43;;;14.00;99.90;;;;;;2100083;28;20028;-80
2023/06/14 00:32:03;;;;;;;6.57;4.60;;;14.00;99.90;;;;;;2091784;28;20029;-80
2023/06/14 00:33:04;;;;;;;7.70;4.63;;;14.00;99.90;;;;;;2099885;28;20036;-79
2023/06/14 00:34:04;;;;;;;5.00;4.13;;;14.00;99.90;;;;;;2100397;28;20419;-80
2023/06/14 00:35:05;;;;;;;6.55;4.80;;;13.90;99.90;;;;;;2106538;28;20521;-80
2023/06/14 00:36:06;;;;;;;5.57;4.32;;;13.90;99.90;;;;;;2102407;28;20071;-80
2023/06/14 00:37:06;;;;;;;6.72;4.88;;;13.90;99.90;;;;;;2092850;28;20029;-80
2023/06/14 00:38:07;;;;;;;5.63;4.53;;;13.90;99.90;;;;;;2097514;28;20054;-80
2023/06/14 00:39:09;;;;;;;4.95;4.20;;;13.90;99.90;;;;;;2098196;28;20019;-80
2023/06/14 00:40:10;;;;;;;6.85;4.60;;;13.80;99.90;;;;;;2097011;28;20406;-80
2023/06/14 00:41:11;;;;;;;6.55;4.72;;;13.80;99.90;;;;;;2098420;28;20028;-81
2023/06/14 00:42:24;;;;;;;6.88;4.75;;;13.80;99.90;;;;;;2099502;28;20080;-81
2023/06/14 00:43:24;;;;;;;6.18;4.63;;;13.80;99.90;;;;;;2097915;28;20055;-80
2023/06/14 00:44:25;;;;;;;5.32;4.82;;;13.80;99.90;;;;;;2100757;28;20024;-81
2023/06/14 00:45:25;;;;;;;6.32;4.80;;;13.80;99.90;;;;;;2103514;28;20104;-80
2023/06/14 00:46:26;;;;;;;6.25;4.97;;;13.80;99.90;;;;;;2092873;28;20586;-81
2023/06/14 00:47:29;;;;;;;5.90;4.82;;;13.80;99.90;;;;;;2095291;28;20032;-81
2023/06/14 00:48:31;;;;;;;6.68;4.70;;;13.70;99.90;;;;;;2096620;28;20028;-80
2023/06/14 00:49:32;;;;;;;6.55;4.50;;;13.80;99.90;;;;;;2097958;28;20632;-81
2023/06/14 00:50:33;;;;;;;5.93;4.72;;;13.80;99.90;;;;;;2104020;28;20055;-80
2023/06/14 00:51:34;;;;;;;6.60;4.88;;;13.70;99.90;;;;;;2102530;28;20365;-80
2023/06/14 00:52:36;;;;;;;5.75;4.63;;;13.70;99.90;;;;;;2102620;28;20041;-80
2023/06/14 00:53:36;;;;;;;6.13;4.35;;;13.70;99.90;;;;;;2106195;28;20708;-80
2023/06/14 00:54:37;;;;;;;6.13;4.55;;;13.70;99.90;;;;;;2101062;28;20024;-78
2023/06/14 00:55:38;;;;;;;6.88;4.70;;;13.70;99.90;;;;;;2105459;28;20172;-80
2023/06/14 00:56:40;;;;;;;6.05;4.75;;;13.70;99.90;;;;;;2104212;28;20024;-81
2023/06/14 00:57:41;;;;;;;6.32;4.63;;;13.70;99.90;;;;;;2103874;28;20027;-81
2023/06/14 00:58:42;;;;;;;7.30;4.90;;;13.60;99.90;;;;;;2109054;28;20054;-81
2023/06/14 00:59:47;;;;;;;9.48;4.90;;;13.70;99.90;;;;;;2100408;28;20015;-81
2023/06/14 01:00:48;;;;;;;6.15;4.90;;;13.60;99.90;;;;;;2101297;27;20090;-80
2023/06/14 01:01:49;;;;;;;5.35;4.60;;;13.60;99.90;;;;;;2099754;28;20103;-81
2023/06/14 01:02:49;;;;;;;6.07;4.90;;;13.60;99.90;;;;;;2095313;28;20534;-81
2023/06/14 01:03:51;;;;;;;7.15;4.90;;;13.60;99.90;;;;;;2097618;28;20083;-82
2023/06/14 01:04:52;;;;;;;6.03;4.80;;;13.60;99.90;;;;;;2099894;28;20058;-80
2023/06/14 01:06:02;;;;;;;6.05;4.70;;;13.60;99.90;;;;;;2096967;28;20035;-80
2023/06/14 01:07:14;;;;;;;6.32;4.72;;;13.60;99.90;;;;;;2093916;28;21022;-78
2023/06/14 01:08:51;;;;;;;5.20;4.70;;;13.60;99.90;;;;;;2092647;28;20263;-74
2023/06/14 01:10:32;;;;;;;7.45;4.80;;;13.50;99.90;;;;;;2101246;28;20016;-80
2023/06/14 01:11:40;;;;;;;7.05;5.32;;;13.50;99.90;;;;;;2096081;28;20131;-76
2023/06/14 01:12:47;;;;;;;7.20;5.00;;;13.50;99.90;;;;;;2097905;28;20020;-76
2023/06/14 01:13:49;;;;;;;7.70;4.93;;;13.50;99.90;;;;;;2092009;28;20037;-75
2023/06/14 01:14:52;;;;;;;7.45;4.60;;;13.50;99.90;;;;;;2092645;28;20062;-75
2023/06/14 01:15:55;;;;;;;8.52;5.10;;;13.50;99.90;;;;;;2102751;28;20026;-75
2023/06/14 01:16:59;;;;;;;8.30;5.05;;;13.50;99.90;;;;;;2102448;28;20054;-76
2023/06/14 01:18:02;;;;;;;6.68;4.95;;;13.50;99.90;;;;;;2103328;28;20015;-75
2023/06/14 01:19:05;;;;;;;6.78;4.95;;;13.50;99.90;;;;;;2101551;28;20134;-75
2023/06/14 01:20:09;;;;;;;8.20;5.30;;;13.50;99.90;;;;;;2098720;28;20036;-75
2023/06/14 01:21:24;;;;;;;7.05;5.15;;;13.40;99.90;;;;;;2098756;28;20607;-75
2023/06/14 01:22:30;;;;;;;6.88;5.30;;;13.40;99.90;;;;;;2099374;27;20037;-75
2023/06/14 01:23:32;;;;;;;6.32;5.13;;;13.40;99.90;;;;;;2098849;28;20032;-76
2023/06/14 01:24:34;;;;;;;5.93;5.32;;;13.40;99.90;;;;;;2093233;28;20043;-76
2023/06/14 01:25:37;;;;;;;8.43;5.15;;;13.40;99.90;;;;;;2099428;28;20021;-76
2023/06/14 01:26:39;;;;;;;8.85;5.30;;;13.40;99.90;;;;;;2099830;28;20570;-76
2023/06/14 01:27:39;;;;;;;9.18;5.50;;;13.40;99.90;;;;;;2103416;28;20035;-75
2023/06/14 01:28:40;;;;;;;6.95;5.40;;;13.40;99.90;;;;;;2092208;28;20036;-76
2023/06/14 01:29:45;;;;;;;9.23;5.60;;;13.40;99.90;;;;;;2094459;28;20052;-76
2023/06/14 01:30:53;;;;;;;6.00;5.13;;;13.40;99.90;;;;;;2102147;28;20038;-76
2023/06/14 01:31:54;;;;;;;8.27;5.30;;;13.40;99.90;;;;;;2092778;28;20044;-76
2023/06/14 01:32:55;;;;;;;7.40;5.75;;;13.40;99.90;;;;;;2097387;28;20028;-75
2023/06/14 01:33:56;;;;;;;5.70;5.18;;;13.40;99.90;;;;;;2091336;28;20028;-74
2023/06/14 01:34:57;;;;;;;7.22;5.47;;;13.30;99.90;;;;;;2100230;28;20047;-74
2023/06/14 01:36:03;;;;;;;7.88;5.28;;;13.40;99.90;;;;;;2098240;28;20039;-74
2023/06/14 01:37:04;;;;;;;5.68;5.15;;;13.30;99.90;;;;;;2103106;28;20028;-74
2023/06/14 01:38:07;;;;;;;9.18;8.27;;;13.30;99.90;;;;;;2097429;28;20078;-74
2023/06/14 01:39:09;;;;;;;9.13;7.22;;;13.30;99.90;;;;;;2086971;28;20029;-74
2023/06/14 01:40:11;;;;;;;7.35;5.75;;;13.30;99.90;;;;;;2085603;28;20029;-74
2023/06/14 01:41:13;;;;;;;7.75;5.60;;;13.20;99.90;;;;;;2092459;28;20072;-74
2023/06/14 01:42:15;;;;;;;6.80;5.38;;;13.20;99.90;;;;;;2086249;28;20128;-74
2023/06/14 01:43:16;;;;;;;9.82;6.40;;;13.20;99.90;;;;;;2101497;28;20027;-75
2023/06/14 01:44:18;;;;;;;6.60;5.90;;;13.20;99.90;;;;;;2101993;28;20506;-75
2023/06/14 01:45:20;;;;;;;7.45;5.82;;;13.20;99.90;;;;;;2100994;28;20487;-76
2023/06/14 01:46:21;;;;;;;5.80;5.20;;;13.10;99.90;;;;;;2090703;28;20038;-74
2023/06/14 01:47:22;;;;;;;6.45;5.20;;;13.10;99.90;;;;;;2094950;28;20028;-75
2023/06/14 01:48:23;;;;;;;6.43;5.13;;;13.10;99.90;;;;;;2094787;28;20093;-75
2023/06/14 01:49:23;;;;;;;7.28;4.85;;;13.10;99.90;;;;;;2097423;28;20131;-76
2023/06/14 01:50:28;;;;;;;7.32;5.25;;;13.10;99.90;;;;;;2096567;28;20096;-75
2023/06/14 01:51:29;;;;;;;6.03;5.05;;;13.00;99.90;;;;;;2097597;28;20036;-75
2023/06/14 01:52:30;;;;;;;7.80;5.22;;;13.10;99.90;;;;;;2092896;28;20219;-75
2023/06/14 01:53:30;;;;;;;6.25;4.85;;;13.10;99.90;;;;;;2100901;28;20037;-75
2023/06/14 01:54:31;;;;;;;5.75;5.00;;;13.00;99.90;;;;;;2105404;28;20122;-75
2023/06/14 01:55:37;;;;;;;5.75;5.10;;;13.00;99.90;;;;;;2103514;28;20042;-75
2023/06/14 01:56:40;;;;;;;7.43;5.20;;;13.00;99.90;;;;;;2105677;28;20093;-75
2023/06/14 01:57:41;;;;;;;7.55;5.10;;;13.00;99.90;;;;;;2095305;28;20115;-74
2023/06/14 01:58:42;;;;;;;5.85;5.25;;;13.00;99.90;;;;;;2094628;28;20103;-75
2023/06/14 01:59:42;;;;;;;6.55;5.00;;;13.10;99.90;;;;;;2099956;28;20116;-73
2023/06/14 02:00:43;;;;;;;6.72;5.15;;;13.10;99.90;;;;;;2101793;28;20452;-74
2023/06/14 02:01:46;;;;;;;5.78;5.03;;;13.00;99.90;;;;;;2101210;28;20074;-75
2023/06/14 02:02:46;;;;;;;7.45;4.93;;;13.10;99.90;;;;;;2094223;28;20427;-74
2023/06/14 02:03:49;;;;;;;7.45;5.55;;;13.00;99.90;;;;;;2101303;28;20015;-73
2023/06/14 02:04:50;;;;;;;5.88;5.22;;;13.00;99.90;;;;;;2102484;28;20019;-75
2023/06/14 02:05:50;;;;;;;7.05;5.28;;;13.00;99.90;;;;;;2098328;28;20541;-75
2023/06/14 02:06:51;;;;;;;6.18;5.03;;;13.00;99.90;;;;;;2094543;28;20495;-75
2023/06/14 02:07:55;;;;;;;6.25;4.93;;;13.00;99.90;;;;;;2097270;28;20032;-75
2023/06/14 02:08:56;;;;;;;6.38;5.40;;;13.00;99.90;;;;;;2088610;28;20087;-75
2023/06/14 02:09:56;;;;;;;6.65;5.30;;;13.00;99.90;;;;;;2104412;28;20078;-76
2023/06/14 02:10:57;;;;;;;6.32;5.53;;;12.90;99.90;;;;;;2095369;28;20035;-75
2023/06/14 02:11:58;;;;;;;5.60;5.00;;;12.90;99.90;;;;;;2078677;28;20029;-75
2023/06/14 02:12:58;;;;;;;5.65;5.05;;;12.90;99.90;;;;;;2087840;28;20016;-75
2023/06/14 02:13:59;;;;;;;6.80;5.00;;;12.90;99.90;;;;;;2104756;28;20024;-75
2023/06/14 02:15:00;;;;;;;6.25;5.40;;;12.80;99.90;;;;;;2101459;28;20016;-75
2023/06/14 02:16:01;;;;;;;7.25;5.15;;;12.80;99.90;;;;;;2098985;28;20044;-75
2023/06/14 02:17:02;;;;;;;6.18;5.38;;;12.80;99.90;;;;;;2098308;28;20103;-75
2023/06/14 02:18:04;;;;;;;5.35;4.85;;;12.80;99.90;;;;;;2099508;28;20157;-75
2023/06/14 02:19:07;;;;;;;5.65;4.90;;;12.80;99.90;;;;;;2097874;28;20394;-75
2023/06/14 02:20:11;;;;;;;7.57;5.20;;;12.80;99.90;;;;;;2083745;28;20086;-75
2023/06/14 02:21:11;;;;;;;7.65;5.18;;;12.80;99.90;;;;;;2076159;28;20120;-75
2023/06/14 02:22:14;;;;;;;6.93;5.50;;;12.80;99.90;;;;;;2083393;28;20037;-75
2023/06/14 02:23:15;;;;;;;7.40;5.28;;;12.70;99.90;;;;;;2095537;28;20561;-75
2023/06/14 02:24:15;;;;;;;6.68;5.18;;;12.80;99.90;;;;;;2105255;28;20016;-75
2023/06/14 02:25:16;;;;;;;6.43;5.32;;;12.70;99.90;;;;;;2098002;28;20152;-75
2023/06/14 02:26:17;;;;;;;8.77;5.72;;;12.70;99.90;;;;;;2099002;28;20062;-75
2023/06/14 02:27:17;;;;;;;7.55;5.00;;;12.70;99.90;;;;;;2098103;28;20369;-75
2023/06/14 02:28:18;;;;;;;6.28;5.40;;;12.70;99.90;;;;;;2101605;28;20266;-75
2023/06/14 02:29:19;;;;;;;6.97;5.50;;;12.60;99.90;;;;;;2092578;28;20052;-75
2023/06/14 02:30:19;;;;;;;6.05;5.10;;;12.70;99.90;;;;;;2092672;28;20020;-75
2023/06/14 02:31:20;;;;;;;6.43;5.20;;;12.70;99.90;;;;;;2100950;28;20529;-75
2023/06/14 02:32:23;;;;;;;6.03;5.32;;;12.70;99.90;;;;;;2103379;28;20190;-75
2023/06/14 02:33:25;;;;;;;6.50;4.97;;;12.70;99.90;;;;;;2098048;28;20262;-75
2023/06/14 02:34:27;;;;;;;6.30;5.40;;;12.70;99.90;;;;;;2095090;28;20017;-75
2023/06/14 02:35:27;;;;;;;6.00;5.40;;;12.60;99.90;;;;;;2098320;28;20032;-74
2023/06/14 02:36:30;;;;;;;8.15;5.50;;;12.60;99.90;;;;;;2098653;28;20108;-74
2023/06/14 02:37:30;;;;;;;5.97;5.10;;;12.60;99.90;;;;;;2098169;28;20735;-75
2023/06/14 02:38:31;;;;;;;6.43;5.28;;;12.60;99.90;;;;;;2093987;28;20131;-75
2023/06/14 02:39:32;;;;;;;7.28;5.20;;;12.60;99.90;;;;;;2083669;28;20508;-74
2023/06/14 02:40:33;;;;;;;6.88;4.97;;;12.60;99.90;;;;;;2092522;28;20078;-73
2023/06/14 02:41:33;;;;;;;6.82;5.53;;;12.60;99.90;;;;;;2102631;28;20054;-74
2023/06/14 02:42:34;;;;;;;6.28;5.40;;;12.60;99.90;;;;;;2098761;28;20310;-74
2023/06/14 02:43:35;;;;;;;7.05;5.43;;;12.60;99.90;;;;;;2098097;28;20113;-74
2023/06/14 02:44:36;;;;;;;6.22;5.25;;;12.60;99.90;;;;;;2089842;28;20029;-74
2023/06/14 02:45:36;;;;;;;6.32;5.22;;;12.60;99.90;;;;;;2101126;28;20039;-74
2023/06/14 02:46:37;;;;;;;6.03;5.40;;;12.60;99.90;;;;;;2100930;28;20021;-74
2023/06/14 02:47:37;;;;;;;8.02;5.43;;;12.60;99.90;;;;;;2102981;28;20346;-74
2023/06/14 02:48:39;;;;;;;6.18;5.25;;;12.60;99.90;;;;;;2103955;28;20300;-74
2023/06/14 02:49:42;;;;;;;6.95;5.50;;;12.60;99.90;;;;;;2093659;28;20457;-74
2023/06/14 02:50:43;;;;;;;5.85;5.25;;;12.60;99.90;;;;;;2101943;28;20093;-74
2023/06/14 02:51:43;;;;;;;7.03;5.68;;;12.60;99.90;;;;;;2098685;28;20036;-75
2023/06/14 02:52:45;;;;;;;6.53;5.40;;;12.60;99.90;;;;;;2098609;28;20028;-75
2023/06/14 02:53:45;;;;;;;6.72;5.70;;;12.50;99.90;;;;;;2098363;28;20129;-74
2023/06/14 02:54:47;;;;;;;6.53;5.82;;;12.60;99.90;;;;;;2089552;28;20438;-74
2023/06/14 02:55:48;;;;;;;6.55;5.63;;;12.60;99.90;;;;;;2097789;28;20042;-75
2023/06/14 02:56:49;;;;;;;6.82;5.35;;;12.60;99.90;;;;;;2101323;28;20044;-74
2023/06/14 02:57:50;;;;;;;8.55;5.32;;;12.50;99.90;;;;;;2101305;28;20020;-74
2023/06/14 02:58:51;;;;;;;8.35;5.63;;;12.60;99.90;;;;;;2100392;28;20394;-74
2023/06/14 02:59:52;;;;;;;8.43;5.57;;;12.50;99.90;;;;;;2100391;28;20410;-74
2023/06/14 03:00:53;;;;;;;6.97;5.70;;;12.60;99.90;;;;;;2090203;28;20039;-74
2023/06/14 03:01:54;;;;;;;7.78;5.72;;;12.50;99.90;;;;;;2090281;28;20075;-74
2023/06/14 03:02:55;;;;;;;8.23;6.68;;;12.50;99.90;;;;;;2098399;28;20028;-74
2023/06/14 03:03:55;;;;;;;8.82;6.82;;;12.60;99.90;;;;;;2090517;28;20056;-74
2023/06/14 03:04:56;;;;;;;7.60;5.93;;;12.50;99.90;;;;;;2094410;28;20029;-74
2023/06/14 03:05:57;;;;;;;6.97;5.50;;;12.60;99.90;;;;;;2086743;28;20024;-74
2023/06/14 03:07:02;;;;;;;11.35;5.70;;;12.60;99.90;;;;;;2097033;28;20031;-74
2023/06/14 03:08:03;;;;;;;6.68;5.47;;;12.50;99.90;;;;;;2100468;28;20032;-74
2023/06/14 03:09:04;;;;;;;10.77;6.10;;;12.60;99.90;;;;;;2082826;28;20111;-75
2023/06/14 03:10:07;;;;;;;7.50;5.95;;;12.50;99.90;;;;;;2079534;28;20439;-74
2023/06/14 03:11:08;;;;;;;7.22;5.93;;;12.50;99.90;;;;;;2089333;28;20035;-74
2023/06/14 03:12:11;;;;;;;7.93;5.95;;;12.50;99.90;;;;;;2097781;28;20081;-74
2023/06/14 03:13:12;;;;;;;6.25;5.63;;;12.50;99.90;;;;;;2089542;28;20569;-75
2023/06/14 03:14:13;;;;;;;8.55;6.13;;;12.50;99.90;;;;;;2102939;28;20020;-75
2023/06/14 03:15:14;;;;;;;6.25;5.65;;;12.50;99.90;;;;;;2097962;28;20346;-74
2023/06/14 03:16:23;;;;;;;7.07;5.60;;;12.50;99.90;;;;;;2094654;28;20103;-74
2023/06/14 03:17:29;;;;;;;6.35;5.75;;;12.50;99.90;;;;;;2089734;28;20042;-74
2023/06/14 03:18:35;;;;;;;8.73;5.95;;;12.50;99.90;;;;;;2097029;28;20487;-75
2023/06/14 03:19:35;;;;;;;8.60;6.15;;;12.50;99.90;;;;;;2100234;28;20365;-74
2023/06/14 03:20:38;;;;;;;7.43;6.00;;;12.50;99.90;;;;;;2091190;28;20036;-75
2023/06/14 03:21:44;;;;;;;8.15;6.03;;;12.50;99.90;;;;;;2086541;28;20031;-74
2023/06/14 03:22:45;;;;;;;6.15;5.55;;;12.50;99.90;;;;;;2089844;28;20028;-73
2023/06/14 03:23:48;;;;;;;6.55;5.68;;;12.50;99.90;;;;;;2102823;28;20007;-75
2023/06/14 03:24:50;;;;;;;8.20;5.90;;;12.50;99.90;;;;;;2100423;28;20398;-74
2023/06/14 03:25:51;;;;;;;7.57;6.00;;;12.50;99.90;;;;;;2100597;28;20023;-74
2023/06/14 03:26:51;;;;;;;7.07;6.18;;;12.50;99.90;;;;;;2094259;28;20024;-75
2023/06/14 03:27:52;;;;;;;10.25;6.28;;;12.50;99.90;;;;;;2081133;28;20048;-75
2023/06/14 03:28:53;;;;;;;8.35;5.78;;;12.40;99.90;;;;;;2085964;28;20052;-75
2023/06/14 03:29:56;;;;;;;8.10;6.15;;;12.40;99.90;;;;;;2084767;28;20640;-75
2023/06/14 03:30:57;;;;;;;8.90;6.07;;;12.50;99.90;;;;;;2092253;28;20364;-74
2023/06/14 03:32:01;;;;;;;8.13;5.95;;;12.40;99.90;;;;;;2090764;28;20035;-76
2023/06/14 03:33:09;;;;;;;7.13;6.35;;;12.50;99.90;;;;;;2088891;28;20036;-73
2023/06/14 03:34:12;;;;;;;8.27;6.13;;;12.40;99.90;;;;;;2092399;28;20016;-74
2023/06/14 03:35:17;;;;;;;7.75;6.28;;;12.40;99.90;;;;;;2092052;28;20050;-74
2023/06/14 03:36:18;;;;;;;8.80;6.35;;;12.40;99.90;;;;;;2101351;28;20042;-75
2023/06/14 03:37:19;;;;;;;7.03;6.32;;;12.40;99.90;;;;;;2089117;28;20056;-75
2023/06/14 03:38:21;;;;;;;9.27;6.45;;;12.40;99.90;;;;;;2094576;28;20078;-75
2023/06/14 03:39:22;;;;;;;6.88;6.18;;;12.40;99.90;;;;;;2090125;28;20512;-74
2023/06/14 03:40:25;;;;;;;7.53;6.72;;;12.40;99.90;;;;;;2090292;28;20104;-75
2023/06/14 03:41:28;;;;;;;8.65;6.80;;;12.40;99.90;;;;;;2090682;28;20079;-76
2023/06/14 03:42:29;;;;;;;7.47;6.35;;;12.30;99.90;;;;;;2098689;28;20452;-72
2023/06/14 03:43:30;;;;;;;6.80;6.10;;;12.40;99.90;;;;;;2102345;28;20032;-75
2023/06/14 03:44:30;;;;;;;7.68;6.45;;;12.40;99.90;;;;;;2103367;28;20016;-75
2023/06/14 03:45:31;;;;;;;8.60;6.53;;;12.40;99.90;;;;;;2083582;28;20029;-74
2023/06/14 03:46:33;;;;;;;7.70;6.25;;;12.40;99.90;;;;;;2101095;28;20027;-74
2023/06/14 03:47:34;;;;;;;7.78;6.32;;;12.30;99.90;;;;;;2103769;28;20531;-74
2023/06/14 03:48:35;;;;;;;8.50;6.55;;;12.30;99.90;;;;;;2101540;28;20028;-74
2023/06/14 03:49:36;;;;;;;9.50;6.38;;;12.40;99.90;;;;;;2098752;28;20106;-74
2023/06/14 03:50:38;;;;;;;7.50;5.93;;;12.40;99.90;;;;;;2094023;28;20895;-74
2023/06/14 03:51:40;;;;;;;7.57;6.40;;;12.40;99.90;;;;;;2081390;28;20538;-75
2023/06/14 03:52:43;;;;;;;8.05;6.32;;;12.40;99.90;;;;;;2097552;28;20032;-74
2023/06/14 03:53:44;;;;;;;9.20;6.70;;;12.30;99.90;;;;;;2096958;28;20024;-75
2023/06/14 03:54:46;;;;;;;6.72;6.10;;;12.40;99.90;;;;;;2095219;28;20025;-75
2023/06/14 03:55:48;;;;;;;6.75;6.03;;;12.40;99.90;;;;;;2093689;28;20031;-75
2023/06/14 03:56:49;;;;;;;7.97;6.18;;;12.40;99.90;;;;;;2092989;28;20078;-74
2023/06/14 03:57:49;;;;;;;11.27;6.80;;;12.40;99.90;;;;;;2105196;28;20120;-75
2023/06/14 03:58:52;;;;;;;7.75;6.28;;;12.40;99.90;;;;;;2102271;28;20077;-74
2023/06/14 03:59:55;;;;;;;10.45;6.70;;;12.40;99.90;;;;;;2089673;28;20168;-75
2023/06/14 04:00:57;;;;;;;8.57;6.75;;;12.40;99.90;;;;;;2097583;28;20028;-75
2023/06/14 04:01:59;;;;;;;9.10;6.60;;;12.50;99.90;;;;;;2095943;28;20020;-74
2023/06/14 04:02:59;;;;;;;7.18;6.43;;;12.40;99.90;;;;;;2103641;28;20444;-74
2023/06/14 04:04:00;;;;;;;7.72;6.40;;;12.40;99.90;;;;;;2098236;28;20667;-74
2023/06/14 04:05:02;;;;;;;7.55;6.40;;;12.50;99.90;;;;;;2096018;28;20121;-75
2023/06/14 04:06:04;;;;;;;7.45;6.40;;;12.50;99.90;;;;;;2103709;28;20575;-75
2023/06/14 04:07:05;;;;;;;9.48;6.50;;;12.50;99.90;;;;;;2093573;28;20024;-74
2023/06/14 04:08:08;;;;;;;7.07;6.15;;;12.60;99.90;;;;;;2095555;28;20038;-74
2023/06/14 04:09:09;;;;;;;7.35;6.45;;;12.70;99.90;;;;;;2088991;28;20115;-75
2023/06/14 04:10:10;;;;;;;6.88;6.18;;;12.80;99.90;;;;;;2095723;28;20024;-74
2023/06/14 04:11:11;;;;;;;7.13;6.18;;;12.90;99.90;;;;;;2094091;28;20068;-76
2023/06/14 04:12:11;;;;;;;7.95;6.70;;;13.10;99.90;;;;;;2089832;28;20178;-75
2023/06/14 04:13:13;;;;;;;7.22;6.40;;;13.30;99.90;;;;;;2093406;28;20115;-74
2023/06/14 04:14:13;;;;;;;8.40;6.50;;;13.50;99.90;;;;;;2096166;28;20024;-74
2023/06/14 04:15:14;;;;;;;7.85;6.15;;;13.70;99.90;;;;;;2102466;28;20020;-74
2023/06/14 04:16:14;;;;;;;10.63;6.65;;;13.80;99.90;;;;;;2103193;28;20409;-74
2023/06/14 04:17:15;;;;;;;7.65;6.32;;;13.90;99.90;;;;;;2099851;28;20023;-75
2023/06/14 04:18:19;;;;;;;7.93;6.00;;;14.00;99.90;;;;;;2097651;28;20566;-75
2023/06/14 04:19:20;;;;;;;8.15;6.40;;;14.20;99.90;;;;;;2090270;28;20021;-72
2023/06/14 04:20:21;;;;;;;6.93;6.22;;;14.20;99.90;;;;;;2090408;28;20075;-72
2023/06/14 04:21:23;;;;;;;8.68;6.60;;;14.20;99.90;;;;;;2093931;28;20124;-72
2023/06/14 04:22:30;;;;;;;8.75;6.30;;;14.20;99.90;;;;;;2088249;28;20036;-73
2023/06/14 04:23:32;;;;;;;8.80;6.43;;;14.20;99.90;;;;;;2086966;28;20240;-72
2023/06/14 04:24:35;;;;;;;6.60;5.93;;;14.20;99.90;;;;;;2104611;28;20024;-73
2023/06/14 04:25:36;;;;;;;8.00;6.82;;;14.30;99.90;;;;;;2092386;28;20438;-73
2023/06/14 04:26:37;;;;;;;9.02;6.50;;;14.50;99.90;;;;;;2096142;28;20032;-72
2023/06/14 04:27:38;;;;;;;8.23;6.22;;;14.70;99.90;;;;;;2106660;28;20098;-72
2023/06/14 04:28:40;;;;;;;7.05;5.90;;;14.90;99.90;;;;;;2098920;28;20080;-72
2023/06/14 04:29:43;;;;;;;6.18;5.57;;;15.30;99.90;;;;;;2091227;28;20075;-74
2023/06/14 04:30:47;;;;;;;6.63;5.80;;;15.60;99.90;;;;;;2095187;28;20279;-74
2023/06/14 04:31:49;;;;;;;7.55;5.65;;;16.00;99.90;;;;;;2099112;28;20024;-74
2023/06/14 04:32:53;;;;;;;7.68;5.80;;;16.40;99.90;;;;;;2077790;28;20040;-73
2023/06/14 04:33:54;;;;;;;5.95;5.35;;;16.80;99.90;;;;;;2093596;28;20025;-73
2023/06/14 04:34:57;;;;;;;8.02;5.65;;;17.10;99.90;;;;;;2093047;28;20125;-73
2023/06/14 04:35:59;;;;;;;7.07;5.63;;;17.40;99.90;;;;;;2101808;28;20051;-72
2023/06/14 04:37:01;;;;;;;6.60;5.28;;;17.70;99.90;;;;;;2101307;28;20306;-72
2023/06/14 04:38:10;;;;;;;6.50;5.80;;;17.90;99.90;;;;;;2097991;28;20016;-72
2023/06/14 04:39:13;;;;;;;6.18;5.57;;;18.10;99.90;;;;;;2084831;28;20078;-72
2023/06/14 04:40:14;;;;;;;6.55;5.47;;;18.00;99.90;;;;;;2082061;28;20195;-72
2023/06/14 04:41:15;;;;;;;8.38;5.85;;;17.80;99.90;;;;;;2079749;28;20041;-72
2023/06/14 04:42:20;;;;;;;7.18;5.80;;;17.70;99.90;;;;;;2083644;28;20031;-72
2023/06/14 04:43:25;;;;;;;8.55;5.63;;;17.70;99.90;;;;;;2093912;28;20063;-73
2023/06/14 04:44:29;;;;;;;6.18;5.57;;;17.70;99.90;;;;;;2096319;28;20028;-73
2023/06/14 04:45:31;;;;;;;9.32;5.80;;;17.80;99.90;;;;;;2091412;28;20120;-71
2023/06/14 04:46:45;;;;;;;10.10;5.95;;;17.90;99.90;;;;;;2091112;28;20423;-72
2023/06/14 04:47:51;;;;;;;8.60;6.13;;;18.00;99.90;;;;;;2099370;28;20896;-71
2023/06/14 04:48:51;;;;;;;7.90;6.43;;;17.90;99.90;;;;;;2095313;28;20021;-71
2023/06/14 04:49:52;;;;;;;8.00;6.13;;;17.70;99.90;;;;;;2095067;28;20141;-71
2023/06/14 04:50:55;;;;;;;8.38;5.97;;;17.40;99.90;;;;;;2102337;28;20036;-72
2023/06/14 04:52:01;;;;;;;6.60;5.90;;;17.20;99.90;;;;;;2094493;28;20341;-72
2023/06/14 04:53:06;;;;;;;6.70;6.00;;;17.10;99.90;;;;;;2098720;28;20487;-70
2023/06/14 04:54:10;;;;;;;8.30;5.78;;;17.10;99.90;;;;;;2097479;28;20024;-72
2023/06/14 04:55:11;;;;;;;8.02;6.00;;;17.30;99.90;;;;;;2096733;28;20035;-72
2023/06/14 04:56:11;;;;;;;7.47;5.65;;;17.50;99.90;;;;;;2095307;28;20094;-72
2023/06/14 04:57:13;;;;;;;7.70;5.70;;;17.70;99.90;;;;;;2089859;28;20186;-71
2023/06/14 04:58:14;;;;;;;8.40;5.93;;;18.00;99.90;;;;;;2090218;28;20556;-72
2023/06/14 04:59:17;;;;;;;6.93;5.88;;;18.30;99.90;;;;;;2090637;28;20025;-72
2023/06/14 05:00:18;;;;;;;8.82;6.32;;;18.40;99.90;;;;;;2090576;28;20029;-72
2023/06/14 05:01:20;;;;;;;10.13;6.47;;;18.60;99.20;;;;;;2093063;28;20116;-72
2023/06/14 05:02:25;;;;;;;9.27;6.05;;;18.80;98.10;;;;;;2098933;28;20452;-72
2023/06/14 05:03:27;;;;;;;9.68;5.80;;;18.90;97.40;;;;;;2092979;28;20418;-72
2023/06/14 05:04:28;;;;;;;6.75;5.80;;;19.10;96.70;;;;;;2102077;28;20517;-71
2023/06/14 05:05:30;;;;;;;8.73;6.05;;;19.20;95.90;;;;;;2086793;28;20031;-72
2023/06/14 05:06:31;;;;;;;7.93;5.50;;;19.30;95.30;;;;;;2085860;28;20021;-72
2023/06/14 05:07:33;;;;;;;9.98;5.90;;;19.50;94.90;;;;;;2095835;28;20449;-72
2023/06/14 05:08:34;;;;;;;6.25;5.60;;;19.50;94.70;;;;;;2096100;28;20123;-72
2023/06/14 05:09:36;;;;;;;8.45;5.75;;;19.70;94.30;;;;;;2102238;28;20020;-72
2023/06/14 05:10:37;;;;;;;8.60;5.68;;;19.70;93.30;;;;;;2100495;28;20474;-71
2023/06/14 05:11:37;;;;;;;7.57;5.53;;;19.60;93.20;;;;;;2102671;28;20490;-74
2023/06/14 05:12:38;;;;;;;7.97;5.80;;;19.80;93.10;;;;;;2098015;28;20021;-71
2023/06/14 05:13:41;;;;;;;8.60;6.00;;;19.70;92.50;;;;;;2092913;28;20112;-72
2023/06/14 05:14:47;;;;;;;7.65;5.97;;;19.60;92.30;;;;;;2097989;28;20324;-72
2023/06/14 05:15:49;;;;;;;7.45;6.40;;;19.30;92.90;;;;;;2098440;28;20054;-71
2023/06/14 05:16:50;;;;;;;8.00;6.47;;;19.10;93.10;;;;;;2093091;28;20032;-72
2023/06/14 05:17:55;;;;;;;6.88;6.18;;;18.90;93.70;;;;;;2101357;28;20109;-72
2023/06/14 05:18:55;;;;;;;8.20;6.15;;;18.90;94.20;;;;;;2101572;28;20106;-72
2023/06/14 05:19:56;;;;;;;6.53;5.72;;;18.90;94.30;;;;;;2102928;28;20453;-71
2023/06/14 05:20:56;;;;;;;7.80;5.80;;;18.90;94.30;;;;;;2100569;28;20686;-72
2023/06/14 05:21:57;;;;;;;7.05;5.75;;;19.00;94.20;;;;;;2095178;28;20016;-71
2023/06/14 05:22:58;;;;;;;9.18;6.30;;;19.00;94.00;;;;;;2098796;28;20017;-72